map of RJOF home
RJOF - Airport
Location
City:  Hofu, Yamaguchi, Japan
ICAO:RJOF

Details
Type:Airport (Aerodrome, Airfield)
Use:Military
Latitude:3402'05"N (34.034667)
Longitude:13132'57"E (131.549194)
Datum:WGS 1984
Elevation:7 ft (2 m)
Variation:7.70W (WMM2015v2 magnetic declination)
-0.08 annual change
Runways:2
Longest:4856 × 148 ft (1480 × 45 m), paved

Time
Time Zone:UTC+9
Local Time:

Weather
METAR:RJOF 032244Z 27008KT 9999 FEW015 SCT035 09/06 Q1019 RMK 1CU015 3CU035 A3010

Related Locations
Nearby:
Farthest:SSMT: 12187 mi / 19613 km
Mostardas, RS, BR

Find:

   beyond  
but within

Other Information
Maps:
NOTAMs:
Links:
Sources:

  
  • flag of Japan
  • flag of Yamaguchi
  

Sectional Chart

Flight Planning
at skyvector.com

Satellite Image

Google Maps Satellite view

 

Copyright © 2004-2019 Karl L. Swartz. All rights reserved.
The Great Circle Mapper name and logo are trademarks of the Great Circle Mapper.
All other trademarks mentioned herein belong to their respective owners.
Please see credits for attibutions and further copyright information.

  Follow gcmap on Facebook Follow gcmap on Twitter GCmap on LinkedIn

hCard Microformat

Geo Microformat